Time;durP1;ratioP1;P1;durP2;ratioP2;P2;SDS_P1;SDS_P2;PMS_P1;PMS_P2;Temp;Humidity;BMP_temperature;BMP_pressure;BME280_temperature;BME280_humidity;BME280_pressure;Samples;Min_cycle;Max_cycle;Signal;HPM_P1;HPM_P2
2023/05/12 00:01:32;;;;;;;;;;;20.20;51.70;;;;;;5073634;28;19932;-54
2023/05/12 00:03:58;;;;;;;;;;;20.20;51.60;;;;;;5075035;28;19969;-55
2023/05/12 00:06:25;;;;;;;;;;;20.20;51.60;;;;;;5074655;28;19931;-56
2023/05/12 00:08:52;;;;;;;;;;;20.20;51.60;;;;;;5073829;28;20004;-54
2023/05/12 00:11:19;;;;;;;;;;;20.20;51.60;;;;;;5084119;28;20447;-54
2023/05/12 00:13:46;;;;;;;;;;;20.20;51.60;;;;;;5075756;28;19924;-55
2023/05/12 00:16:14;;;;;;;;;;;20.20;51.60;;;;;;5076547;28;19920;-54
2023/05/12 00:18:42;;;;;;;;;;;20.20;51.60;;;;;;5058272;28;19943;-54
2023/05/12 00:21:09;;;;;;;;;;;20.20;51.60;;;;;;5073819;28;20413;-55
2023/05/12 00:23:36;;;;;;;;;;;20.20;51.50;;;;;;5056532;28;19920;-51
2023/05/12 00:26:02;;;;;;;;;;;20.20;51.40;;;;;;5071620;28;19921;-54
2023/05/12 00:28:29;;;;;;;;;;;20.20;51.40;;;;;;5077356;28;19969;-53
2023/05/12 00:30:56;;;;;;;;;;;20.20;51.40;;;;;;5062958;28;19927;-54
2023/05/12 00:33:23;;;;;;;;;;;20.20;51.30;;;;;;5081326;28;20419;-52
2023/05/12 00:35:51;;;;;;;;;;;20.20;51.20;;;;;;5109556;28;19920;-55
2023/05/12 00:38:17;;;;;;;;;;;20.20;51.20;;;;;;5094771;28;20315;-53
2023/05/12 00:40:44;;;;;;;;;;;20.10;51.10;;;;;;5092600;28;19980;-52
2023/05/12 00:43:11;;;;;;;;;;;20.10;51.10;;;;;;5073884;28;19920;-54
2023/05/12 00:45:38;;;;;;;;;;;20.10;51.00;;;;;;5091505;28;19920;-54
2023/05/12 00:48:05;;;;;;;;;;;20.10;50.90;;;;;;5067074;28;19924;-53
2023/05/12 00:50:34;;;;;;;;;;;20.10;50.90;;;;;;5089565;28;19927;-55
2023/05/12 00:53:02;;;;;;;;;;;20.10;50.90;;;;;;5090580;28;19963;-54
2023/05/12 00:55:29;;;;;;;;;;;20.10;50.90;;;;;;5091855;28;20354;-55
2023/05/12 00:57:56;;;;;;;;;;;20.10;50.90;;;;;;5071869;28;19919;-56
2023/05/12 01:00:23;;;;;;;;;;;20.10;50.90;;;;;;5073013;28;19920;-51
2023/05/12 01:02:49;;;;;;;;;;;20.10;50.80;;;;;;5073246;28;19971;-55
2023/05/12 01:05:16;;;;;;;;;;;20.10;50.80;;;;;;5073946;28;19962;-54
2023/05/12 01:07:43;;;;;;;;;;;20.10;50.80;;;;;;5088909;28;19965;-53
2023/05/12 01:10:18;;;;;;;;;;;20.10;50.80;;;;;;5072750;28;19921;-54
2023/05/12 01:12:45;;;;;;;;;;;20.10;50.80;;;;;;5086345;28;20353;-53
2023/05/12 01:15:11;;;;;;;;;;;20.10;50.80;;;;;;5059655;28;19927;-54
2023/05/12 01:17:38;;;;;;;;;;;20.10;50.70;;;;;;5072079;28;19966;-55
2023/05/12 01:20:06;;;;;;;;;;;20.10;50.70;;;;;;5070681;28;19973;-54
2023/05/12 01:22:32;;;;;;;;;;;20.10;50.70;;;;;;5072145;28;19921;-54
2023/05/12 01:25:00;;;;;;;;;;;20.10;50.70;;;;;;5073673;28;19926;-52
2023/05/12 01:27:28;;;;;;;;;;;20.10;50.60;;;;;;5073293;28;19953;-55
2023/05/12 01:29:56;;;;;;;;;;;20.10;50.60;;;;;;5060254;28;19928;-54
2023/05/12 01:32:22;;;;;;;;;;;20.10;50.70;;;;;;5059263;28;20366;-55
2023/05/12 01:34:49;;;;;;;;;;;20.10;50.60;;;;;;5079383;28;19924;-54
2023/05/12 01:37:16;;;;;;;;;;;20.10;50.60;;;;;;5093880;28;20018;-55
2023/05/12 01:39:42;;;;;;;;;;;20.10;50.60;;;;;;5077188;28;19921;-52
2023/05/12 01:42:09;;;;;;;;;;;20.10;50.60;;;;;;5057342;28;19928;-53
2023/05/12 01:44:38;;;;;;;;;;;20.10;50.60;;;;;;5073495;28;19927;-56
2023/05/12 01:47:08;;;;;;;;;;;20.10;50.60;;;;;;5073025;28;19921;-54
2023/05/12 01:49:35;;;;;;;;;;;20.10;50.60;;;;;;5085656;28;19950;-53
2023/05/12 01:52:02;;;;;;;;;;;20.10;50.60;;;;;;5092724;28;19920;-54
2023/05/12 01:54:29;;;;;;;;;;;20.10;50.60;;;;;;5092416;28;19924;-55
2023/05/12 01:56:56;;;;;;;;;;;20.10;50.60;;;;;;5092755;28;20243;-53
2023/05/12 01:59:22;;;;;;;;;;;20.10;50.60;;;;;;5072294;28;19969;-54
2023/05/12 02:01:52;;;;;;;;;;;20.10;50.60;;;;;;5073882;28;19951;-53
2023/05/12 02:04:19;;;;;;;;;;;20.10;50.60;;;;;;5071550;28;19969;-54
2023/05/12 02:06:45;;;;;;;;;;;20.10;50.60;;;;;;5077775;28;19932;-53
2023/05/12 02:09:12;;;;;;;;;;;20.10;50.50;;;;;;5082491;28;19924;-54
2023/05/12 02:11:39;;;;;;;;;;;20.10;50.50;;;;;;5072152;28;20339;-54
2023/05/12 02:14:06;;;;;;;;;;;20.10;50.50;;;;;;5080186;28;19924;-54
2023/05/12 02:16:33;;;;;;;;;;;20.10;50.50;;;;;;5061668;28;19920;-53
2023/05/12 02:19:16;;;;;;;;;;;20.10;50.50;;;;;;5073714;28;19920;-55
2023/05/12 02:21:44;;;;;;;;;;;20.10;50.50;;;;;;5077151;28;19920;-52
2023/05/12 02:24:11;;;;;;;;;;;20.10;50.50;;;;;;5077207;28;19943;-55
2023/05/12 02:26:38;;;;;;;;;;;20.10;50.40;;;;;;5075534;28;19920;-54
2023/05/12 02:29:07;;;;;;;;;;;20.10;50.50;;;;;;5060413;28;19921;-51
2023/05/12 02:31:34;;;;;;;;;;;20.10;50.50;;;;;;5077056;28;19927;-53
2023/05/12 02:34:01;;;;;;;;;;;20.10;50.50;;;;;;5079504;28;19933;-52
2023/05/12 02:36:29;;;;;;;;;;;20.10;50.40;;;;;;5089230;28;20453;-55
2023/05/12 02:38:56;;;;;;;;;;;20.10;50.40;;;;;;5077611;28;19986;-55
2023/05/12 02:41:22;;;;;;;;;;;20.10;50.50;;;;;;5073858;28;19963;-55
2023/05/12 02:43:51;;;;;;;;;;;20.10;50.40;;;;;;5081417;28;19920;-55
2023/05/12 02:46:18;;;;;;;;;;;20.10;50.40;;;;;;5082369;28;19974;-55
2023/05/12 02:48:44;;;;;;;;;;;20.00;50.30;;;;;;5073078;28;19921;-55
2023/05/12 02:51:11;;;;;;;;;;;20.00;50.30;;;;;;5059997;28;19954;-54
2023/05/12 02:53:40;;;;;;;;;;;20.10;50.40;;;;;;5076995;28;19920;-54
2023/05/12 02:56:06;;;;;;;;;;;20.00;50.30;;;;;;5075400;28;19921;-54
2023/05/12 02:58:33;;;;;;;;;;;20.10;50.30;;;;;;5059029;28;20313;-55
2023/05/12 03:01:00;;;;;;;;;;;20.00;50.30;;;;;;5088791;28;19920;-54
2023/05/12 03:03:27;;;;;;;;;;;20.00;50.20;;;;;;5093377;28;19969;-53
2023/05/12 03:05:53;;;;;;;;;;;20.00;50.20;;;;;;5096029;28;19973;-55
2023/05/12 03:08:20;;;;;;;;;;;20.00;50.20;;;;;;5096615;28;19920;-55
2023/05/12 03:10:49;;;;;;;;;;;20.00;50.20;;;;;;5089533;28;20284;-52
2023/05/12 03:13:16;;;;;;;;;;;20.00;50.20;;;;;;5081118;28;19924;-55
2023/05/12 03:15:43;;;;;;;;;;;20.00;50.20;;;;;;5075411;28;19921;-54
2023/05/12 03:18:09;;;;;;;;;;;20.00;50.20;;;;;;5086728;28;20240;-55
2023/05/12 03:20:36;;;;;;;;;;;20.00;50.10;;;;;;5097378;28;19920;-55
2023/05/12 03:23:05;;;;;;;;;;;20.00;50.10;;;;;;5075510;28;19920;-51
2023/05/12 03:25:33;;;;;;;;;;;20.00;50.10;;;;;;5075267;28;19920;-53
2023/05/12 03:28:04;;;;;;;;;;;20.00;50.10;;;;;;5076478;28;19970;-52
2023/05/12 03:30:31;;;;;;;;;;;20.00;50.10;;;;;;5071861;28;19920;-56
2023/05/12 03:32:58;;;;;;;;;;;20.00;50.10;;;;;;5085941;28;19967;-54
2023/05/12 03:35:25;;;;;;;;;;;20.00;50.10;;;;;;5089736;28;20308;-53
2023/05/12 03:37:52;;;;;;;;;;;20.00;50.10;;;;;;5070449;28;19924;-54
2023/05/12 03:40:18;;;;;;;;;;;20.00;50.10;;;;;;5070731;28;19920;-53
2023/05/12 03:42:45;;;;;;;;;;;20.00;50.10;;;;;;5091665;28;19984;-52
2023/05/12 03:45:13;;;;;;;;;;;20.00;50.60;;;;;;5094105;28;19926;-55
2023/05/12 03:47:40;;;;;;;;;;;20.00;50.00;;;;;;5074191;28;19920;-55
2023/05/12 03:50:07;;;;;;;;;;;20.00;50.00;;;;;;5073490;28;19927;-55
2023/05/12 03:52:36;;;;;;;;;;;20.00;50.00;;;;;;5076158;28;20252;-56
2023/05/12 03:55:03;;;;;;;;;;;20.00;50.10;;;;;;5058348;28;19920;-54
2023/05/12 03:57:29;;;;;;;;;;;20.00;50.00;;;;;;5088263;28;19920;-53
2023/05/12 03:59:56;;;;;;;;;;;20.00;50.00;;;;;;5058923;28;19931;-52
2023/05/12 04:02:24;;;;;;;;;;;20.00;50.00;;;;;;5085101;28;19920;-55
2023/05/12 04:04:51;;;;;;;;;;;20.00;50.00;;;;;;5083485;28;19919;-55
2023/05/12 04:07:18;;;;;;;;;;;20.00;50.00;;;;;;5067880;28;19959;-56
2023/05/12 04:09:44;;;;;;;;;;;20.00;50.00;;;;;;5076474;28;19973;-55
2023/05/12 04:12:11;;;;;;;;;;;20.00;50.00;;;;;;5109434;28;19923;-54
2023/05/12 04:14:39;;;;;;;;;;;20.00;50.00;;;;;;5074022;28;20265;-55
2023/05/12 04:17:05;;;;;;;;;;;20.00;50.00;;;;;;5089172;28;19920;-56
2023/05/12 04:19:34;;;;;;;;;;;20.00;50.60;;;;;;5076059;28;19920;-55
2023/05/12 04:22:01;;;;;;;;;;;20.00;50.00;;;;;;5074584;28;19920;-55
2023/05/12 04:24:27;;;;;;;;;;;20.00;49.90;;;;;;5055287;28;19920;-55
2023/05/12 04:26:54;;;;;;;;;;;20.00;49.90;;;;;;5093336;28;19920;-55
2023/05/12 04:29:21;;;;;;;;;;;20.00;49.90;;;;;;5093832;28;19920;-55
2023/05/12 04:31:48;;;;;;;;;;;20.00;49.90;;;;;;5090127;28;19920;-55
2023/05/12 04:34:15;;;;;;;;;;;20.00;49.90;;;;;;5108261;28;19946;-55
2023/05/12 04:36:43;;;;;;;;;;;20.00;49.90;;;;;;5075477;28;19965;-54
2023/05/12 04:39:09;;;;;;;;;;;20.00;49.90;;;;;;5083735;28;19925;-56
2023/05/12 04:41:36;;;;;;;;;;;20.00;49.90;;;;;;5088431;28;19955;-55
2023/05/12 04:44:03;;;;;;;;;;;20.00;49.90;;;;;;5094234;28;19920;-56
2023/05/12 04:46:30;;;;;;;;;;;20.00;49.80;;;;;;5070465;28;19920;-55
2023/05/12 04:48:57;;;;;;;;;;;20.00;49.80;;;;;;5075042;28;19925;-55
2023/05/12 04:51:23;;;;;;;;;;;20.00;49.80;;;;;;5071381;28;19927;-54
2023/05/12 04:53:51;;;;;;;;;;;20.00;49.90;;;;;;5073602;28;19967;-53
2023/05/12 04:56:18;;;;;;;;;;;20.00;49.90;;;;;;5072833;28;19920;-55
2023/05/12 04:58:45;;;;;;;;;;;20.00;49.80;;;;;;5074245;28;19921;-54
2023/05/12 05:01:12;;;;;;;;;;;20.00;49.80;;;;;;5085386;28;20427;-53
2023/05/12 05:03:39;;;;;;;;;;;20.00;49.80;;;;;;5090396;28;19920;-55
2023/05/12 05:06:06;;;;;;;;;;;20.00;49.80;;;;;;5080349;28;19958;-56
2023/05/12 05:08:33;;;;;;;;;;;20.00;49.90;;;;;;5071340;28;20313;-55
2023/05/12 05:11:01;;;;;;;;;;;20.00;49.80;;;;;;5080785;28;19920;-55
2023/05/12 05:13:30;;;;;;;;;;;20.00;49.80;;;;;;5072018;28;19924;-53
2023/05/12 05:15:56;;;;;;;;;;;20.00;49.80;;;;;;5096744;28;19930;-53
2023/05/12 05:18:23;;;;;;;;;;;20.00;49.80;;;;;;5073165;28;20248;-55
2023/05/12 05:20:50;;;;;;;;;;;20.00;49.80;;;;;;5089994;28;20310;-55
2023/05/12 05:23:17;;;;;;;;;;;20.00;49.80;;;;;;5095657;28;20374;-55
2023/05/12 05:25:44;;;;;;;;;;;20.00;49.80;;;;;;5072177;28;19926;-56
2023/05/12 05:28:12;;;;;;;;;;;20.00;49.70;;;;;;5075827;28;19932;-53
2023/05/12 05:30:39;;;;;;;;;;;20.00;49.70;;;;;;5072576;28;19927;-56
2023/05/12 05:33:06;;;;;;;;;;;20.00;50.40;;;;;;5091331;28;20015;-55
2023/05/12 05:35:32;;;;;;;;;;;20.00;49.80;;;;;;5072039;28;19975;-55
2023/05/12 05:38:00;;;;;;;;;;;20.00;49.80;;;;;;5073024;28;19989;-56
2023/05/12 05:40:33;;;;;;;;;;;20.00;49.80;;;;;;5088385;28;19970;-56
2023/05/12 05:43:00;;;;;;;;;;;20.00;49.70;;;;;;5072657;28;19927;-56
2023/05/12 05:45:28;;;;;;;;;;;20.00;49.70;;;;;;5087247;28;19989;-55
2023/05/12 05:47:55;;;;;;;;;;;20.00;49.70;;;;;;5071940;28;19993;-54
2023/05/12 05:50:22;;;;;;;;;;;20.00;49.70;;;;;;5087292;28;19920;-53
2023/05/12 05:52:48;;;;;;;;;;;20.00;49.70;;;;;;5071551;28;20366;-55
2023/05/12 05:55:15;;;;;;;;;;;20.00;49.70;;;;;;5074366;28;19928;-54
2023/05/12 05:57:42;;;;;;;;;;;20.00;49.60;;;;;;5087108;28;19927;-55
2023/05/12 06:00:11;;;;;;;;;;;20.00;49.60;;;;;;5065292;28;20285;-55
2023/05/12 06:02:39;;;;;;;;;;;20.00;49.60;;;;;;5076990;28;19932;-56
2023/05/12 06:05:06;;;;;;;;;;;20.00;49.60;;;;;;5089463;28;19924;-52
2023/05/12 06:07:35;;;;;;;;;;;20.00;49.60;;;;;;5076808;28;20014;-53
2023/05/12 06:10:03;;;;;;;;;;;20.00;49.60;;;;;;5089884;28;19928;-55
2023/05/12 06:12:29;;;;;;;;;;;20.00;49.60;;;;;;5070238;28;20360;-54
2023/05/12 06:14:56;;;;;;;;;;;20.00;49.60;;;;;;5072589;28;19982;-57
2023/05/12 06:17:23;;;;;;;;;;;20.00;49.50;;;;;;5068507;28;20389;-54
2023/05/12 06:19:51;;;;;;;;;;;20.00;49.50;;;;;;5087977;28;20340;-55
2023/05/12 06:22:18;;;;;;;;;;;20.00;49.50;;;;;;5087407;28;20022;-51
2023/05/12 06:24:45;;;;;;;;;;;20.00;49.50;;;;;;5070495;28;20005;-56
2023/05/12 06:27:12;;;;;;;;;;;20.00;49.40;;;;;;5089881;28;19920;-55
2023/05/12 06:29:38;;;;;;;;;;;20.00;49.40;;;;;;5086888;28;19920;-56
2023/05/12 06:32:06;;;;;;;;;;;20.00;49.40;;;;;;5070714;28;19924;-56
2023/05/12 06:34:32;;;;;;;;;;;20.00;49.30;;;;;;5086606;28;19936;-56
2023/05/12 06:37:00;;;;;;;;;;;20.00;49.30;;;;;;5085256;28;19920;-57
2023/05/12 06:39:27;;;;;;;;;;;20.00;49.30;;;;;;5070268;28;19932;-57
2023/05/12 06:41:54;;;;;;;;;;;20.00;49.30;;;;;;5070996;28;19932;-57
2023/05/12 06:44:23;;;;;;;;;;;20.00;49.20;;;;;;5087872;28;19920;-57
2023/05/12 06:46:52;;;;;;;;;;;20.00;49.20;;;;;;5088142;28;19931;-57
2023/05/12 06:49:19;;;;;;;;;;;20.00;49.30;;;;;;5069250;28;19931;-57
2023/05/12 06:51:45;;;;;;;;;;;20.00;49.20;;;;;;5069733;28;20024;-58
2023/05/12 06:54:14;;;;;;;;;;;20.00;49.20;;;;;;5069400;28;19967;-58
2023/05/12 06:56:41;;;;;;;;;;;20.00;49.20;;;;;;5087874;28;19924;-58
2023/05/12 06:59:07;;;;;;;;;;;20.10;49.20;;;;;;5072598;28;19939;-58
2023/05/12 07:01:34;;;;;;;;;;;20.00;49.10;;;;;;5088138;28;20377;-58
2023/05/12 07:04:01;;;;;;;;;;;20.10;49.20;;;;;;5088423;28;20362;-58
2023/05/12 07:06:28;;;;;;;;;;;20.10;49.20;;;;;;5072142;28;19924;-58
2023/05/12 07:08:57;;;;;;;;;;;20.10;49.20;;;;;;5091098;28;19924;-58
2023/05/12 07:11:25;;;;;;;;;;;20.10;49.10;;;;;;5078940;28;19927;-58
2023/05/12 07:13:52;;;;;;;;;;;20.10;49.10;;;;;;5091386;28;19973;-58
2023/05/12 07:16:22;;;;;;;;;;;20.10;49.10;;;;;;5097009;28;19954;-58
2023/05/12 07:18:49;;;;;;;;;;;20.10;49.60;;;;;;5094442;28;20317;-58
2023/05/12 07:21:17;;;;;;;;;;;20.10;49.00;;;;;;5090592;28;19974;-58
2023/05/12 07:23:43;;;;;;;;;;;20.10;49.00;;;;;;5086485;28;19927;-57
2023/05/12 07:26:10;;;;;;;;;;;20.10;49.00;;;;;;5092286;28;19985;-57
2023/05/12 07:28:38;;;;;;;;;;;20.10;49.00;;;;;;5092003;28;19920;-57
2023/05/12 07:31:05;;;;;;;;;;;20.10;49.00;;;;;;5072125;28;19965;-58
2023/05/12 07:33:32;;;;;;;;;;;20.20;49.10;;;;;;5072532;28;19978;-58
2023/05/12 07:35:59;;;;;;;;;;;20.20;49.10;;;;;;5072813;28;19928;-57
2023/05/12 07:38:26;;;;;;;;;;;20.20;49.10;;;;;;5073056;28;19928;-57
2023/05/12 07:40:55;;;;;;;;;;;20.20;49.10;;;;;;5091341;28;20374;-57
2023/05/12 07:43:22;;;;;;;;;;;20.20;49.10;;;;;;5078988;28;19943;-58
2023/05/12 07:45:50;;;;;;;;;;;20.20;49.10;;;;;;5079048;28;19924;-58
2023/05/12 07:48:17;;;;;;;;;;;20.20;49.10;;;;;;5072984;28;19920;-58
2023/05/12 07:50:44;;;;;;;;;;;20.20;49.00;;;;;;5072281;28;19920;-58
2023/05/12 07:53:11;;;;;;;;;;;20.20;49.00;;;;;;5063453;28;20058;-58
2023/05/12 07:55:38;;;;;;;;;;;20.20;49.00;;;;;;5072289;28;19924;-58
2023/05/12 07:58:05;;;;;;;;;;;20.20;49.00;;;;;;5084749;28;20423;-58
2023/05/12 08:00:32;;;;;;;;;;;20.20;49.00;;;;;;5072680;28;19927;-58
2023/05/12 08:03:03;;;;;;;;;;;20.20;49.00;;;;;;5087535;28;19928;-58
2023/05/12 08:05:29;;;;;;;;;;;20.30;49.00;;;;;;5087907;28;19955;-58
2023/05/12 08:07:56;;;;;;;;;;;20.30;49.00;;;;;;5073122;28;19924;-58
2023/05/12 08:10:28;;;;;;;;;;;20.20;48.80;;;;;;5070706;28;19920;-58
2023/05/12 08:12:54;;;;;;;;;;;20.30;48.90;;;;;;5081174;28;19921;-58
2023/05/12 08:15:24;;;;;;;;;;;20.30;48.90;;;;;;5073453;28;19919;-59
2023/05/12 08:17:50;;;;;;;;;;;20.30;48.90;;;;;;5067427;28;19939;-58
2023/05/12 08:20:19;;;;;;;;;;;20.30;48.80;;;;;;5079561;28;19943;-58
2023/05/12 08:22:49;;;;;;;;;;;20.30;48.80;;;;;;5060041;28;19967;-58
2023/05/12 08:25:16;;;;;;;;;;;20.30;48.80;;;;;;5061122;28;19920;-58
2023/05/12 08:27:43;;;;;;;;;;;20.30;48.80;;;;;;5073206;28;19942;-57
2023/05/12 08:30:10;;;;;;;;;;;20.30;48.80;;;;;;5072283;28;19920;-57
2023/05/12 08:32:37;;;;;;;;;;;20.30;48.70;;;;;;5089997;28;19928;-57
2023/05/12 08:35:04;;;;;;;;;;;20.30;48.70;;;;;;5074893;28;19920;-56
2023/05/12 08:37:32;;;;;;;;;;;20.30;48.70;;;;;;5074246;28;19924;-57
2023/05/12 08:39:59;;;;;;;;;;;20.30;48.70;;;;;;5091547;28;19939;-57
2023/05/12 08:42:29;;;;;;;;;;;20.30;48.60;;;;;;5077873;28;19920;-58
2023/05/12 08:44:56;;;;;;;;;;;20.30;48.60;;;;;;5072912;28;19963;-57
2023/05/12 08:47:24;;;;;;;;;;;20.30;48.50;;;;;;5072062;28;19920;-58
2023/05/12 08:50:01;;;;;;;;;;;20.30;48.50;;;;;;5091763;28;19920;-58
2023/05/12 08:52:27;;;;;;;;;;;20.30;48.50;;;;;;5088408;28;19961;-58
2023/05/12 08:54:56;;;;;;;;;;;20.30;48.40;;;;;;5084957;28;19924;-58
2023/05/12 08:57:22;;;;;;;;;;;20.30;48.40;;;;;;5068158;28;19920;-58
2023/05/12 08:59:51;;;;;;;;;;;20.30;48.30;;;;;;5071643;28;19923;-58
2023/05/12 09:02:19;;;;;;;;;;;20.30;48.30;;;;;;5091275;28;19927;-58
2023/05/12 09:04:47;;;;;;;;;;;20.30;48.30;;;;;;5073277;28;20258;-58
2023/05/12 09:07:16;;;;;;;;;;;20.30;48.30;;;;;;5094500;28;19924;-59
2023/05/12 09:09:44;;;;;;;;;;;20.30;48.30;;;;;;5071825;28;19931;-58
2023/05/12 09:12:13;;;;;;;;;;;20.30;48.20;;;;;;5090547;28;19920;-59
2023/05/12 09:14:42;;;;;;;;;;;20.30;48.20;;;;;;5074098;28;19924;-59
2023/05/12 09:17:11;;;;;;;;;;;20.30;48.20;;;;;;5077739;28;19977;-56
2023/05/12 09:19:38;;;;;;;;;;;20.30;48.20;;;;;;5074130;28;19920;-58
2023/05/12 09:22:04;;;;;;;;;;;20.30;48.20;;;;;;5076973;28;19926;-57
2023/05/12 09:24:35;;;;;;;;;;;20.30;48.10;;;;;;5089928;28;19920;-58
2023/05/12 09:27:02;;;;;;;;;;;20.30;48.10;;;;;;5091960;28;19935;-56
2023/05/12 09:29:31;;;;;;;;;;;20.40;48.20;;;;;;5072212;28;20224;-57
2023/05/12 09:31:59;;;;;;;;;;;20.40;48.10;;;;;;5070824;28;20034;-58
2023/05/12 09:34:27;;;;;;;;;;;20.40;48.10;;;;;;5073679;28;19928;-54
2023/05/12 09:36:57;;;;;;;;;;;20.40;48.10;;;;;;5070814;28;20290;-55
2023/05/12 09:39:25;;;;;;;;;;;20.40;48.60;;;;;;5090182;28;19966;-58
2023/05/12 09:42:03;;;;;;;;;;;20.40;48.60;;;;;;5072963;28;19931;-57
2023/05/12 09:44:32;;;;;;;;;;;20.40;48.00;;;;;;5056261;28;19939;-58
2023/05/12 09:47:05;;;;;;;;;;;20.40;48.00;;;;;;5071521;28;19934;-57
2023/05/12 09:49:32;;;;;;;;;;;20.40;48.00;;;;;;5070863;28;19920;-58
2023/05/12 09:51:59;;;;;;;;;;;20.40;48.00;;;;;;5085759;28;19946;-58
2023/05/12 09:54:27;;;;;;;;;;;20.40;48.50;;;;;;5086693;28;19920;-58
2023/05/12 09:56:58;;;;;;;;;;;20.40;47.90;;;;;;5072520;28;19985;-59
2023/05/12 09:59:27;;;;;;;;;;;20.40;47.90;;;;;;5084645;28;19985;-58
2023/05/12 10:01:55;;;;;;;;;;;20.40;47.80;;;;;;5071196;28;19926;-59
2023/05/12 10:04:22;;;;;;;;;;;20.40;47.80;;;;;;5069919;28;19920;-58
2023/05/12 10:06:48;;;;;;;;;;;20.50;47.80;;;;;;5088983;28;19920;-57
2023/05/12 10:09:17;;;;;;;;;;;20.50;47.80;;;;;;5071230;28;19920;-58
2023/05/12 10:11:44;;;;;;;;;;;20.50;47.70;;;;;;5072306;28;19924;-59
2023/05/12 10:14:11;;;;;;;;;;;20.50;47.60;;;;;;5071116;28;19957;-59
2023/05/12 10:16:38;;;;;;;;;;;20.50;47.60;;;;;;5088370;28;20354;-59
2023/05/12 10:19:07;;;;;;;;;;;20.50;47.50;;;;;;5072159;28;20276;-57
2023/05/12 10:21:34;;;;;;;;;;;20.50;47.40;;;;;;5070886;28;19924;-58
2023/05/12 10:24:00;;;;;;;;;;;20.50;47.40;;;;;;5071381;28;19931;-58
2023/05/12 10:26:29;;;;;;;;;;;20.50;47.40;;;;;;5089103;28;19919;-58
2023/05/12 10:28:57;;;;;;;;;;;20.50;47.20;;;;;;5087521;28;19932;-58
2023/05/12 10:31:24;;;;;;;;;;;20.50;47.10;;;;;;5072151;28;19920;-58
2023/05/12 10:33:57;;;;;;;;;;;20.50;47.10;;;;;;5070992;28;20370;-57
2023/05/12 10:36:25;;;;;;;;;;;20.50;47.00;;;;;;5085899;28;19926;-57
2023/05/12 10:38:53;;;;;;;;;;;20.50;46.80;;;;;;5070145;28;20113;-57
2023/05/12 10:41:28;;;;;;;;;;;20.50;46.70;;;;;;5092400;28;19920;-58
2023/05/12 10:44:07;;;;;;;;;;;20.50;46.60;;;;;;5072298;28;19921;-58
2023/05/12 10:46:34;;;;;;;;;;;20.50;46.50;;;;;;5088501;28;20333;-57
2023/05/12 10:49:02;;;;;;;;;;;20.50;46.30;;;;;;5076676;28;19927;-57
2023/05/12 10:51:31;;;;;;;;;;;20.50;46.30;;;;;;5093230;28;20312;-58
2023/05/12 10:53:59;;;;;;;;;;;20.50;46.20;;;;;;5091382;28;19927;-58
2023/05/12 10:56:27;;;;;;;;;;;20.50;46.10;;;;;;5092631;28;20247;-57
2023/05/12 10:59:12;;;;;;;;;;;20.50;46.00;;;;;;5077257;28;20255;-57
2023/05/12 11:01:43;;;;;;;;;;;20.50;46.00;;;;;;5070388;28;19920;-58
2023/05/12 11:04:10;;;;;;;;;;;20.50;46.00;;;;;;5073642;28;19920;-57
2023/05/12 11:06:38;;;;;;;;;;;20.50;45.90;;;;;;5092058;28;19943;-58
2023/05/12 11:09:05;;;;;;;;;;;20.50;45.90;;;;;;5089008;28;19920;-57
2023/05/12 11:11:32;;;;;;;;;;;20.60;45.90;;;;;;5100557;28;19920;-57
2023/05/12 11:14:01;;;;;;;;;;;20.50;45.40;;;;;;5089556;28;19966;-57
2023/05/12 11:16:27;;;;;;;;;;;20.50;45.10;;;;;;5091187;28;19920;-57
2023/05/12 11:19:00;;;;;;;;;;;20.50;44.10;;;;;;5100131;28;19920;-58
2023/05/12 11:21:27;;;;;;;;;;;20.50;43.70;;;;;;5107665;28;19924;-58
2023/05/12 11:23:56;;;;;;;;;;;20.50;42.90;;;;;;5080476;28;19920;-58
2023/05/12 11:26:22;;;;;;;;;;;20.50;42.80;;;;;;5075620;28;20367;-58
2023/05/12 11:28:49;;;;;;;;;;;20.50;42.60;;;;;;5090025;28;19928;-58
2023/05/12 11:31:17;;;;;;;;;;;20.50;42.90;;;;;;5086084;28;20277;-58
2023/05/12 11:33:44;;;;;;;;;;;20.50;43.10;;;;;;5075701;28;19920;-58
2023/05/12 11:36:11;;;;;;;;;;;20.50;43.00;;;;;;5093235;28;19932;-57
2023/05/12 11:38:37;;;;;;;;;;;20.50;42.90;;;;;;5073456;28;19930;-57
2023/05/12 11:41:05;;;;;;;;;;;20.50;42.70;;;;;;5088347;28;19920;-55
2023/05/12 11:43:32;;;;;;;;;;;20.50;42.30;;;;;;5073249;28;19955;-57
2023/05/12 11:46:00;;;;;;;;;;;20.50;41.10;;;;;;5095217;28;19932;-59
2023/05/12 11:48:32;;;;;;;;;;;20.50;41.10;;;;;;5071985;28;19924;-59
2023/05/12 11:50:59;;;;;;;;;;;20.50;40.60;;;;;;5089522;28;20402;-58
2023/05/12 11:53:25;;;;;;;;;;;20.50;39.80;;;;;;5094060;28;19920;-58
2023/05/12 11:55:53;;;;;;;;;;;20.50;39.90;;;;;;5091312;28;19920;-58
2023/05/12 11:58:21;;;;;;;;;;;20.50;39.50;;;;;;5070390;28;19977;-58
2023/05/12 12:00:48;;;;;;;;;;;20.50;40.70;;;;;;5070001;28;19924;-58
2023/05/12 12:03:15;;;;;;;;;;;20.50;40.50;;;;;;5086309;28;19920;-58
2023/05/12 12:05:44;;;;;;;;;;;20.50;40.80;;;;;;5073441;28;19923;-58
2023/05/12 12:08:12;;;;;;;;;;;20.60;41.10;;;;;;5072747;28;20439;-58
2023/05/12 12:10:39;;;;;;;;;;;20.60;41.30;;;;;;5073491;28;19920;-58
2023/05/12 12:13:05;;;;;;;;;;;20.60;41.50;;;;;;5089736;28;19946;-58
2023/05/12 12:15:34;;;;;;;;;;;20.60;41.60;;;;;;5090224;28;19931;-58
2023/05/12 12:18:01;;;;;;;;;;;20.60;41.60;;;;;;5088002;28;20011;-58
2023/05/12 12:20:27;;;;;;;;;;;20.60;41.70;;;;;;5072588;28;19924;-58
2023/05/12 12:22:54;;;;;;;;;;;20.60;41.90;;;;;;5087706;28;19927;-58
2023/05/12 12:25:21;;;;;;;;;;;20.60;41.90;;;;;;5073184;28;19920;-58
2023/05/12 12:27:48;;;;;;;;;;;20.60;42.00;;;;;;5089256;28;20005;-58
2023/05/12 12:30:15;;;;;;;;;;;20.60;42.00;;;;;;5090426;28;19920;-59
2023/05/12 12:32:44;;;;;;;;;;;20.60;42.10;;;;;;5072578;28;19924;-58
2023/05/12 12:35:11;;;;;;;;;;;20.60;42.00;;;;;;5071143;28;20370;-57
2023/05/12 12:37:39;;;;;;;;;;;20.60;42.00;;;;;;5085619;28;19926;-57
2023/05/12 12:40:07;;;;;;;;;;;20.60;42.00;;;;;;5074584;28;19928;-57
2023/05/12 12:42:34;;;;;;;;;;;20.60;42.00;;;;;;5071839;28;19931;-58
2023/05/12 12:45:01;;;;;;;;;;;20.60;41.90;;;;;;5086060;28;19924;-59
2023/05/12 12:47:28;;;;;;;;;;;20.70;42.00;;;;;;5071943;28;20019;-58
2023/05/12 12:49:56;;;;;;;;;;;20.70;42.00;;;;;;5078342;28;19923;-59
2023/05/12 12:52:23;;;;;;;;;;;20.70;41.90;;;;;;5072017;28;19965;-59
2023/05/12 12:54:50;;;;;;;;;;;20.70;41.80;;;;;;5088804;28;19956;-59
2023/05/12 12:57:17;;;;;;;;;;;20.60;41.70;;;;;;5088437;28;19966;-60
2023/05/12 12:59:44;;;;;;;;;;;20.70;41.80;;;;;;5088535;28;19920;-59
2023/05/12 13:02:10;;;;;;;;;;;20.70;41.80;;;;;;5089825;28;19920;-59
2023/05/12 13:04:37;;;;;;;;;;;20.70;41.70;;;;;;5072372;28;20400;-58
2023/05/12 13:07:06;;;;;;;;;;;20.70;41.70;;;;;;5072352;28;19920;-58
2023/05/12 13:09:33;;;;;;;;;;;20.70;41.70;;;;;;5087352;28;19931;-58
2023/05/12 13:12:00;;;;;;;;;;;20.70;41.60;;;;;;5092614;28;19920;-59
2023/05/12 13:14:26;;;;;;;;;;;20.70;41.70;;;;;;5074025;28;19924;-57
2023/05/12 13:16:53;;;;;;;;;;;20.70;41.60;;;;;;5091827;28;19920;-59
2023/05/12 13:19:21;;;;;;;;;;;20.70;41.60;;;;;;5075403;28;19985;-56
2023/05/12 13:21:48;;;;;;;;;;;20.70;41.60;;;;;;5092103;28;19931;-58
2023/05/12 13:24:16;;;;;;;;;;;20.70;41.60;;;;;;5092084;28;19926;-59
2023/05/12 13:26:43;;;;;;;;;;;20.70;41.60;;;;;;5074525;28;19920;-58
2023/05/12 13:29:10;;;;;;;;;;;20.70;41.70;;;;;;5074348;28;19920;-58
2023/05/12 13:31:40;;;;;;;;;;;20.70;41.70;;;;;;5091977;28;19920;-58
2023/05/12 13:34:06;;;;;;;;;;;20.70;41.70;;;;;;5076288;28;19924;-58
2023/05/12 13:36:33;;;;;;;;;;;20.70;41.50;;;;;;5091454;28;19920;-58
2023/05/12 13:39:00;;;;;;;;;;;20.70;41.40;;;;;;5090773;28;19920;-56
2023/05/12 13:41:28;;;;;;;;;;;20.70;41.40;;;;;;5073753;28;20202;-57
2023/05/12 13:43:56;;;;;;;;;;;20.70;41.40;;;;;;5077793;28;20202;-57
2023/05/12 13:46:23;;;;;;;;;;;20.70;41.20;;;;;;5094533;28;19965;-59
2023/05/12 13:48:51;;;;;;;;;;;20.80;41.20;;;;;;5088417;28;20551;-59
2023/05/12 13:51:18;;;;;;;;;;;20.70;41.00;;;;;;5074182;28;20423;-57
2023/05/12 13:53:45;;;;;;;;;;;20.80;40.80;;;;;;5089524;28;19920;-59
2023/05/12 13:56:12;;;;;;;;;;;20.80;40.90;;;;;;5071926;28;19920;-58
2023/05/12 13:58:40;;;;;;;;;;;20.80;40.00;;;;;;5088114;28;19920;-59
2023/05/12 14:01:07;;;;;;;;;;;20.80;39.40;;;;;;5070998;28;19971;-58
2023/05/12 14:03:34;;;;;;;;;;;20.80;39.50;;;;;;5070811;28;20301;-59
2023/05/12 14:06:01;;;;;;;;;;;20.80;38.70;;;;;;5071598;28;20222;-58
2023/05/12 14:08:28;;;;;;;;;;;20.80;38.70;;;;;;5089176;28;19924;-61
2023/05/12 14:10:54;;;;;;;;;;;20.80;39.20;;;;;;5088558;28;19939;-60
2023/05/12 14:13:23;;;;;;;;;;;20.80;39.60;;;;;;5087833;28;19925;-62
2023/05/12 14:15:51;;;;;;;;;;;20.80;39.80;;;;;;5094009;28;20404;-62
2023/05/12 14:18:17;;;;;;;;;;;20.80;40.00;;;;;;5092835;28;19924;-62